CYZH

Slave Lake Airport

Slave Lake, Alberta, Canada
METAR CYZH 170800Z AUTO 13005KT 9SM CLR M20/M22 A3032 RMK SLP323
Observed Flight Rules
Nov-17 @ 08:00 UTC (58 minutes ago) Visual Flight Rules
Wind Visibility Clouds
130° at 5 knots 9 miles
  • Clear skies
Temperatures Readings
Current -20°C / -4°F
Dewpoint -22°C / -8°F
Humidity 84%
Altimeter 30.32" Hg
Pressure 1032.3 hPa
Elevation 581
METAR CYZH 170800Z AUTO 13005KT 9SM CLR M20/M22 A3032 RMK SLP323
Observed Flight Rules
Nov-17 @ 08:00 UTC
(58 minutes ago)
VFR
Wind Visibility
130° at 5 knots 9 miles
Clouds
  • Clear skies
Temperature Dewpoint
-20°C / -4°F -22°C / -8°F
Humidity Altimeter Pressure
84% 30.32" Hg 1032.3 hPa